createdAt,value
2019-01-31T00:02:27.138Z,75.25
2019-01-31T00:05:21.596Z,77.87
2019-01-31T00:08:45.594Z,76.00
2019-01-31T00:12:02.538Z,79.53
2019-01-31T00:14:53.506Z,72.92
2019-01-31T00:17:55.861Z,81.92
2019-01-31T00:20:50.748Z,92.95
2019-01-31T00:24:11.188Z,83.60
2019-01-31T00:27:18.804Z,78.72
2019-01-31T00:30:06.202Z,74.22
2019-01-31T00:33:03.592Z,72.47
2019-01-31T00:36:10.601Z,65.60
2019-01-31T00:39:25.262Z,103.50
2019-01-31T00:42:19.913Z,123.78
2019-01-31T00:45:12.470Z,105.63
2019-01-31T00:48:09.218Z,105.65
2019-01-31T00:51:01.645Z,111.12
2019-01-31T00:53:46.067Z,101.85
2019-01-31T00:56:43.461Z,118.05
2019-01-31T01:00:00.740Z,152.93
2019-01-31T01:03:18.784Z,164.45
2019-01-31T01:06:15.824Z,159.70
2019-01-31T01:09:39.934Z,173.78
2019-01-31T01:12:53.842Z,165.17
2019-01-31T01:15:54.775Z,167.27
2019-01-31T01:18:59.568Z,169.55
2019-01-31T01:21:57.334Z,249.70
2019-01-31T01:25:14.791Z,164.73
2019-01-31T01:28:33.615Z,125.07
2019-01-31T01:31:29.402Z,104.90
2019-01-31T01:34:24.532Z,127.40
2019-01-31T01:37:26.636Z,99.83
2019-01-31T01:40:43.787Z,88.63
2019-01-31T01:43:26.848Z,90.50
2019-01-31T01:46:40.229Z,141.17
2019-01-31T01:49:41.290Z,213.87
2019-01-31T01:52:27.006Z,118.20
2019-01-31T01:55:18.198Z,130.43
2019-01-31T01:58:25.952Z,128.07
2019-01-31T02:01:37.639Z,217.27
2019-01-31T02:04:13.764Z,554.27
2019-01-31T02:07:34.057Z,594.03
2019-01-31T02:10:56.482Z,214.97
2019-01-31T02:14:06.598Z,292.57
2019-01-31T02:17:02.964Z,286.10
2019-01-31T02:20:10.315Z,262.23
2019-01-31T02:23:12.144Z,358.73
2019-01-31T02:26:15.920Z,250.53
2019-01-31T02:29:30.676Z,219.33
2019-01-31T02:32:15.741Z,158.03
2019-01-31T02:35:23.076Z,237.07
2019-01-31T02:38:49.677Z,294.87
2019-01-31T02:41:51.047Z,404.50
2019-01-31T02:44:56.355Z,689.57
2019-01-31T02:48:08.705Z,836.60
2019-01-31T02:50:58.469Z,749.87
2019-01-31T02:54:23.531Z,571.47
2019-01-31T02:57:23.737Z,665.93
2019-01-31T03:00:25.023Z,642.03
2019-01-31T03:03:23.566Z,274.77
2019-01-31T03:06:16.254Z,738.40
2019-01-31T03:09:05.732Z,566.83
2019-01-31T03:11:57.926Z,612.13
2019-01-31T03:14:33.575Z,587.63
2019-01-31T03:17:45.270Z,408.43
2019-01-31T03:20:46.753Z,399.17
2019-01-31T03:23:49.328Z,424.93
2019-01-31T03:26:54.957Z,509.30
2019-01-31T03:30:02.755Z,473.57
2019-01-31T03:32:57.891Z,551.33
2019-01-31T03:36:07.496Z,729.50
2019-01-31T03:38:49.997Z,223.63
2019-01-31T03:42:07.534Z,351.13
2019-01-31T03:45:04.253Z,155.97
2019-01-31T03:48:18.399Z,220.90
2019-01-31T03:51:16.518Z,378.27
2019-01-31T03:54:30.960Z,414.47
2019-01-31T03:57:34.357Z,352.67
2019-01-31T04:00:24.644Z,549.83
2019-01-31T04:03:22.675Z,595.87
2019-01-31T04:06:23.971Z,626.10
2019-01-31T04:08:54.610Z,804.40
2019-01-31T04:11:25.081Z,421.73
2019-01-31T04:13:55.526Z,426.43
2019-01-31T04:16:25.996Z,708.07
2019-01-31T04:18:56.492Z,591.73
2019-01-31T04:21:26.947Z,436.07
2019-01-31T04:23:57.654Z,482.47
2019-01-31T04:26:29.130Z,476.40
2019-01-31T04:28:59.615Z,612.67
2019-01-31T04:31:30.101Z,670.23
2019-01-31T04:34:00.560Z,529.33
2019-01-31T04:36:31.026Z,497.00
2019-01-31T04:39:01.553Z,579.10
2019-01-31T04:41:33.120Z,374.33
2019-01-31T04:44:04.658Z,201.17
2019-01-31T04:46:35.093Z,486.57
2019-01-31T04:49:06.111Z,261.27
2019-01-31T04:51:36.559Z,353.93
2019-01-31T04:54:07.024Z,318.97
2019-01-31T04:56:37.513Z,360.67
2019-01-31T04:59:07.990Z,342.57
2019-01-31T05:01:38.463Z,325.03
2019-01-31T05:04:08.988Z,321.80
2019-01-31T05:06:39.511Z,430.33
2019-01-31T05:09:10.042Z,347.67
2019-01-31T05:11:42.196Z,268.69
2019-01-31T05:14:12.789Z,268.63
2019-01-31T05:16:43.553Z,386.37
2019-01-31T05:19:14.049Z,536.30
2019-01-31T05:21:44.769Z,296.67
2019-01-31T05:24:15.331Z,258.33
2019-01-31T05:26:45.800Z,583.57
2019-01-31T05:29:16.280Z,617.13
2019-01-31T05:31:46.725Z,667.37
2019-01-31T05:34:17.178Z,542.00
2019-01-31T05:36:47.631Z,466.53
2019-01-31T05:39:18.089Z,345.97
2019-01-31T05:41:48.539Z,665.53
2019-01-31T05:44:19.021Z,826.17
2019-01-31T05:46:49.393Z,796.13
2019-01-31T05:49:19.834Z,743.13
2019-01-31T05:51:50.318Z,664.53
2019-01-31T05:54:20.795Z,799.30
2019-01-31T05:56:51.236Z,539.90
2019-01-31T05:59:21.613Z,718.37
2019-01-31T06:01:52.055Z,727.80
2019-01-31T06:04:22.736Z,794.87
2019-01-31T06:06:53.206Z,670.63
2019-01-31T06:09:23.702Z,739.77
2019-01-31T06:11:54.456Z,501.80
2019-01-31T06:14:24.899Z,756.17
2019-01-31T06:16:55.353Z,458.13
2019-01-31T06:19:25.783Z,259.87
2019-01-31T06:21:56.273Z,711.83
2019-01-31T06:24:26.773Z,517.57
2019-01-31T06:26:57.243Z,498.93
2019-01-31T06:29:27.689Z,986.80
2019-01-31T06:31:58.154Z,491.83
2019-01-31T06:34:28.671Z,935.17
2019-01-31T06:36:59.137Z,987.23
2019-01-31T06:39:29.649Z,808.67
2019-01-31T06:42:00.166Z,1258.17
2019-01-31T06:44:30.684Z,1316.27
2019-01-31T06:47:01.185Z,777.90
2019-01-31T06:49:31.676Z,1225.60
2019-01-31T06:52:02.138Z,1141.50
2019-01-31T06:54:32.600Z,1126.20
2019-01-31T06:57:03.140Z,720.87
2019-01-31T06:59:33.619Z,1063.80
2019-01-31T07:02:04.188Z,833.57
2019-01-31T07:04:34.662Z,951.60
2019-01-31T07:07:05.157Z,840.37
2019-01-31T07:09:35.648Z,1027.30
2019-01-31T07:12:06.320Z,862.53
2019-01-31T07:14:36.798Z,667.67
2019-01-31T07:17:07.281Z,797.40
2019-01-31T07:19:37.759Z,870.93
2019-01-31T07:22:08.278Z,875.97
2019-01-31T07:24:38.752Z,751.03
2019-01-31T07:27:09.252Z,604.50
2019-01-31T07:29:39.748Z,786.37
2019-01-31T07:32:10.301Z,648.27
2019-01-31T07:34:41.017Z,586.30
2019-01-31T07:37:11.474Z,744.87
2019-01-31T07:39:41.987Z,488.43
2019-01-31T07:42:12.484Z,510.57
2019-01-31T07:44:42.979Z,701.13
2019-01-31T07:47:14.083Z,467.98
2019-01-31T07:49:44.577Z,480.90
2019-01-31T07:52:15.055Z,662.20
2019-01-31T07:54:45.554Z,611.10
2019-01-31T07:57:16.654Z,372.42
2019-01-31T07:59:47.161Z,403.10
2019-01-31T08:02:18.262Z,364.85
2019-01-31T08:04:49.303Z,352.60
2019-01-31T08:07:20.392Z,510.05
2019-01-31T08:09:51.483Z,304.57
2019-01-31T08:12:21.941Z,336.70
2019-01-31T08:14:53.003Z,575.12
2019-01-31T08:17:24.074Z,659.70
2019-01-31T08:19:55.130Z,558.15
2019-01-31T08:22:26.196Z,213.52
2019-01-31T08:24:57.348Z,352.90
2019-01-31T08:27:28.456Z,236.70
2019-01-31T08:29:59.547Z,238.87
2019-01-31T08:32:30.013Z,303.87
2019-01-31T08:35:01.204Z,219.13
2019-01-31T08:37:32.297Z,266.17
2019-01-31T08:40:03.500Z,231.30
2019-01-31T08:42:34.002Z,160.20
2019-01-31T08:45:05.172Z,148.95
2019-01-31T08:47:36.223Z,183.22
2019-01-31T08:50:08.583Z,237.45
2019-01-31T08:52:41.653Z,100.85
2019-01-31T08:55:12.382Z,139.97
2019-01-31T08:57:43.449Z,116.03
2019-01-31T09:00:21.015Z,141.10
2019-01-31T09:02:52.052Z,143.75
2019-01-31T09:05:23.121Z,149.47
2019-01-31T09:07:54.172Z,128.70
2019-01-31T09:10:30.522Z,102.22
2019-01-31T09:13:04.555Z,96.87
2019-01-31T09:15:35.630Z,70.45
2019-01-31T09:18:07.342Z,78.75
2019-01-31T09:20:45.110Z,83.97
2019-01-31T09:23:24.093Z,84.15
2019-01-31T09:26:37.803Z,84.20
2019-01-31T09:29:26.874Z,90.87
2019-01-31T09:32:32.416Z,87.45
2019-01-31T09:35:41.688Z,101.00
2019-01-31T09:38:52.499Z,90.10
2019-01-31T09:41:42.147Z,76.07
2019-01-31T09:45:15.316Z,72.55
2019-01-31T09:48:37.434Z,78.85
2019-01-31T09:51:20.418Z,84.50
2019-01-31T09:54:22.370Z,86.97
2019-01-31T09:57:11.351Z,85.40
2019-01-31T10:00:33.092Z,80.57
2019-01-31T10:03:13.404Z,84.90
2019-01-31T10:06:12.681Z,105.20
2019-01-31T10:09:36.561Z,124.50
2019-01-31T10:12:57.547Z,102.00
2019-01-31T10:16:09.815Z,70.08
2019-01-31T10:19:36.994Z,74.15
2019-01-31T10:22:43.988Z,68.83
2019-01-31T10:25:49.434Z,116.25
2019-01-31T10:29:06.813Z,102.35
2019-01-31T10:32:31.220Z,85.72
2019-01-31T10:36:01.306Z,88.33
2019-01-31T10:38:49.027Z,103.92
2019-01-31T10:41:56.708Z,91.35
2019-01-31T10:45:03.726Z,88.90
2019-01-31T10:48:12.472Z,71.22
2019-01-31T10:51:32.280Z,92.95
2019-01-31T10:54:35.491Z,109.78
2019-01-31T10:57:38.521Z,76.40
2019-01-31T11:00:45.420Z,81.87
2019-01-31T11:03:58.672Z,79.60
2019-01-31T11:06:57.335Z,71.77
2019-01-31T11:10:14.168Z,66.77
2019-01-31T11:13:40.204Z,57.23
2019-01-31T11:17:07.320Z,69.30
2019-01-31T11:20:15.389Z,77.75
2019-01-31T11:23:22.968Z,64.72
2019-01-31T11:26:47.529Z,65.90
2019-01-31T11:29:43.403Z,62.15
2019-01-31T11:32:52.955Z,65.15
2019-01-31T11:36:15.596Z,75.67
2019-01-31T11:39:21.564Z,66.82
2019-01-31T11:42:31.827Z,78.60
2019-01-31T11:45:43.789Z,75.40
2019-01-31T11:48:48.229Z,83.42
2019-01-31T11:51:53.025Z,81.20
2019-01-31T11:54:55.155Z,96.57
2019-01-31T11:58:02.245Z,86.45
2019-01-31T12:00:33.947Z,82.17
2019-01-31T12:03:05.060Z,96.28
2019-01-31T12:05:36.723Z,88.07
2019-01-31T12:08:07.837Z,84.97
2019-01-31T12:10:38.901Z,87.65
2019-01-31T12:13:09.871Z,83.50
2019-01-31T12:15:40.954Z,105.25
2019-01-31T12:18:12.082Z,88.40
2019-01-31T12:20:43.155Z,93.65
2019-01-31T12:23:14.289Z,90.05
2019-01-31T12:25:45.313Z,82.37
2019-01-31T12:28:16.340Z,95.80
2019-01-31T12:30:47.381Z,98.55
2019-01-31T12:33:18.483Z,115.32
2019-01-31T12:35:49.518Z,98.17
2019-01-31T12:38:20.803Z,126.05
2019-01-31T12:40:51.843Z,110.60
2019-01-31T12:43:34.303Z,122.35
2019-01-31T12:45:55.652Z,127.80
2019-01-31T12:48:26.808Z,142.35
2019-01-31T12:50:57.840Z,116.60
2019-01-31T12:53:28.830Z,124.20
2019-01-31T12:55:59.933Z,116.37
2019-01-31T12:58:33.606Z,102.97
2019-01-31T13:01:05.161Z,102.87
2019-01-31T13:03:36.260Z,105.50
2019-01-31T13:06:07.304Z,112.03
2019-01-31T13:08:38.349Z,106.67
2019-01-31T13:11:09.393Z,145.45
2019-01-31T13:13:46.099Z,123.22
2019-01-31T13:16:13.199Z,117.82
2019-01-31T13:18:44.261Z,122.55
2019-01-31T13:21:15.308Z,117.00
2019-01-31T13:23:46.368Z,103.45
2019-01-31T13:26:17.336Z,110.92
2019-01-31T13:28:48.393Z,108.92
2019-01-31T13:31:19.450Z,110.40
2019-01-31T13:33:50.505Z,109.67
2019-01-31T13:36:22.836Z,111.97
2019-01-31T13:38:53.899Z,108.72
2019-01-31T13:41:24.972Z,113.88
2019-01-31T13:43:57.727Z,115.12
2019-01-31T13:46:28.795Z,108.60
2019-01-31T13:48:59.863Z,107.32
2019-01-31T13:51:30.927Z,124.55
2019-01-31T13:54:01.980Z,113.42
2019-01-31T13:56:44.919Z,112.17
2019-01-31T13:59:05.999Z,111.88
2019-01-31T14:01:37.052Z,108.00
2019-01-31T14:04:08.089Z,101.20
2019-01-31T14:06:39.137Z,102.55
2019-01-31T14:09:10.520Z,115.05
2019-01-31T14:11:41.573Z,122.07
2019-01-31T14:14:12.639Z,113.25
2019-01-31T14:16:47.799Z,115.30
2019-01-31T14:19:16.427Z,108.00
2019-01-31T14:21:47.628Z,99.97
2019-01-31T14:24:18.756Z,87.80
2019-01-31T14:26:49.803Z,96.82
2019-01-31T14:29:21.913Z,94.62
2019-01-31T14:31:52.962Z,97.33
2019-01-31T14:34:23.978Z,94.55
2019-01-31T14:36:55.023Z,106.43
2019-01-31T14:39:26.114Z,104.38
2019-01-31T14:41:57.156Z,94.25
2019-01-31T14:44:28.213Z,92.67
2019-01-31T14:46:59.280Z,89.90
2019-01-31T14:49:30.289Z,87.80
2019-01-31T14:52:01.329Z,100.18
2019-01-31T14:54:32.388Z,95.97
2019-01-31T14:57:04.449Z,90.35
2019-01-31T14:59:35.522Z,91.17
2019-01-31T15:02:06.673Z,98.70
2019-01-31T15:04:37.721Z,109.20
2019-01-31T15:07:08.786Z,104.05
2019-01-31T15:09:39.867Z,108.90
2019-01-31T15:12:10.907Z,105.40
2019-01-31T15:14:42.007Z,106.30
2019-01-31T15:17:13.086Z,109.70
2019-01-31T15:19:44.224Z,121.15
2019-01-31T15:22:15.217Z,158.70
2019-01-31T15:24:46.517Z,137.88
2019-01-31T15:27:17.634Z,123.28
2019-01-31T15:29:48.674Z,115.37
2019-01-31T15:32:20.073Z,107.20
2019-01-31T15:34:51.150Z,95.97
2019-01-31T15:37:22.222Z,89.75
2019-01-31T15:39:53.262Z,95.42
2019-01-31T15:42:24.356Z,95.35
2019-01-31T15:44:55.405Z,99.60
2019-01-31T15:47:26.454Z,112.80
2019-01-31T15:49:57.552Z,114.70
2019-01-31T15:52:28.641Z,145.47
2019-01-31T15:54:59.730Z,116.95
2019-01-31T15:57:30.895Z,118.75
2019-01-31T16:00:01.969Z,137.55
2019-01-31T16:02:33.070Z,161.45
2019-01-31T16:05:04.153Z,151.02
2019-01-31T16:07:35.247Z,155.95
2019-01-31T16:10:06.337Z,143.45
2019-01-31T16:12:37.399Z,139.92
2019-01-31T16:15:09.569Z,149.85
2019-01-31T16:17:40.673Z,161.50
2019-01-31T16:20:12.983Z,159.43
2019-01-31T16:22:44.107Z,160.60
2019-01-31T16:25:16.454Z,167.03
2019-01-31T16:27:47.505Z,156.97
2019-01-31T16:30:21.101Z,161.77
2019-01-31T16:32:52.203Z,159.12
2019-01-31T16:35:24.310Z,174.47
2019-01-31T16:37:55.519Z,154.65
2019-01-31T16:40:26.640Z,174.30
2019-01-31T16:42:57.700Z,191.85
2019-01-31T16:45:28.799Z,190.53
2019-01-31T16:47:59.880Z,180.90
2019-01-31T16:50:30.957Z,170.02
2019-01-31T16:53:02.070Z,174.93
2019-01-31T16:55:33.115Z,156.30
2019-01-31T16:58:04.306Z,138.30
2019-01-31T17:00:35.457Z,148.97
2019-01-31T17:03:07.318Z,135.68
2019-01-31T17:05:38.398Z,127.30
2019-01-31T17:08:10.474Z,125.65
2019-01-31T17:10:43.280Z,122.13
2019-01-31T17:13:14.379Z,125.55
2019-01-31T17:15:45.469Z,140.05
2019-01-31T17:18:16.585Z,120.15
2019-01-31T17:20:47.737Z,122.87
2019-01-31T17:23:18.884Z,118.53
2019-01-31T17:25:49.988Z,119.17
2019-01-31T17:28:21.072Z,122.70
2019-01-31T17:30:51.554Z,120.83
2019-01-31T17:33:22.783Z,117.47
2019-01-31T17:35:53.885Z,118.80
2019-01-31T17:38:25.997Z,118.93
2019-01-31T17:40:57.117Z,110.68
2019-01-31T17:43:29.728Z,115.40
2019-01-31T17:46:01.146Z,104.92
2019-01-31T17:48:35.316Z,98.40
2019-01-31T17:51:05.296Z,91.00
2019-01-31T17:53:36.433Z,98.85
2019-01-31T17:56:07.545Z,87.10
2019-01-31T17:58:38.113Z,85.17
2019-01-31T18:01:09.178Z,85.65
2019-01-31T18:03:40.315Z,83.25
2019-01-31T18:06:11.389Z,87.82
2019-01-31T18:08:42.506Z,77.80
2019-01-31T18:11:13.684Z,59.50
2019-01-31T18:13:44.900Z,65.40
2019-01-31T18:16:17.506Z,54.90
2019-01-31T18:18:49.091Z,42.62
2019-01-31T18:21:20.165Z,26.17
2019-01-31T18:23:51.298Z,18.98
2019-01-31T18:26:22.427Z,21.40
2019-01-31T18:28:52.956Z,19.30
2019-01-31T18:31:24.449Z,13.70
2019-01-31T18:33:57.085Z,10.00
2019-01-31T18:36:27.605Z,5.23
2019-01-31T18:38:58.733Z,6.15
2019-01-31T18:41:29.198Z,5.87
2019-01-31T18:43:59.728Z,7.23
2019-01-31T18:46:30.239Z,7.67
2019-01-31T18:49:00.828Z,4.73
2019-01-31T18:51:31.322Z,6.33
2019-01-31T18:54:01.821Z,5.60
2019-01-31T18:56:32.311Z,3.63
2019-01-31T18:59:03.399Z,4.30
2019-01-31T19:01:33.994Z,4.73
2019-01-31T19:04:05.068Z,6.20
2019-01-31T19:06:36.224Z,3.17
2019-01-31T19:09:06.731Z,4.83
2019-01-31T19:11:37.259Z,4.73
2019-01-31T19:14:07.754Z,4.90
2019-01-31T19:16:38.842Z,4.85
2019-01-31T19:19:09.928Z,4.00
2019-01-31T19:21:40.436Z,4.70
2019-01-31T19:24:10.920Z,6.07
2019-01-31T19:26:42.002Z,6.55
2019-01-31T19:29:12.780Z,9.03
2019-01-31T19:31:43.942Z,6.55
2019-01-31T19:34:15.235Z,8.37
2019-01-31T19:36:45.822Z,8.00
2019-01-31T19:39:18.920Z,8.85
2019-01-31T19:41:49.454Z,6.95
2019-01-31T19:44:19.927Z,7.47
2019-01-31T19:46:50.418Z,12.37
2019-01-31T19:49:21.012Z,10.23
2019-01-31T19:51:51.578Z,10.00
2019-01-31T19:54:24.160Z,6.17
2019-01-31T19:56:54.652Z,6.93
2019-01-31T19:59:25.951Z,8.40
2019-01-31T20:01:56.437Z,10.40
2019-01-31T20:04:27.098Z,8.40
2019-01-31T20:06:57.561Z,7.83
2019-01-31T20:09:29.228Z,9.10
2019-01-31T20:11:59.734Z,7.43
2019-01-31T20:14:30.214Z,19.77
2019-01-31T20:17:01.358Z,12.63
2019-01-31T20:19:32.886Z,15.47
2019-01-31T20:22:03.744Z,11.23
2019-01-31T20:24:34.208Z,11.10
2019-01-31T20:27:04.674Z,11.30
2019-01-31T20:29:35.153Z,11.30
2019-01-31T20:32:06.136Z,7.90
2019-01-31T20:34:37.984Z,16.43
2019-01-31T20:37:10.121Z,16.48
2019-01-31T20:39:40.641Z,17.47
2019-01-31T20:42:11.707Z,24.27
2019-01-31T20:44:42.779Z,9.30
2019-01-31T20:47:15.868Z,8.25
2019-01-31T20:49:46.599Z,9.18
2019-01-31T20:52:17.653Z,7.67
2019-01-31T20:54:48.112Z,7.30
2019-01-31T20:57:18.540Z,12.77
2019-01-31T20:59:49.114Z,12.73
2019-01-31T21:02:21.887Z,13.93
2019-01-31T21:04:52.459Z,22.03
2019-01-31T21:07:23.020Z,22.47
2019-01-31T21:09:53.543Z,12.83
2019-01-31T21:12:24.286Z,7.83
2019-01-31T21:14:54.738Z,7.27
2019-01-31T21:17:25.517Z,8.07
2019-01-31T21:19:55.971Z,7.57
2019-01-31T21:22:26.561Z,6.90
2019-01-31T21:24:56.996Z,7.47
2019-01-31T21:28:18.931Z,8.57
2019-01-31T21:30:45.205Z,7.40
2019-01-31T21:33:11.278Z,6.23
2019-01-31T21:35:37.551Z,6.00
2019-01-31T21:38:03.839Z,7.07
2019-01-31T21:40:33.872Z,6.40
2019-01-31T21:43:00.153Z,4.90
2019-01-31T21:45:26.326Z,6.83
2019-01-31T21:47:52.625Z,5.83
2019-01-31T21:50:21.812Z,7.43
2019-01-31T21:52:48.099Z,5.85
2019-01-31T21:55:14.593Z,6.97
2019-01-31T21:57:40.667Z,6.47
2019-01-31T22:00:32.955Z,6.30
2019-01-31T22:02:59.251Z,6.03
2019-01-31T22:05:25.519Z,5.43
2019-01-31T22:07:51.701Z,6.30
2019-01-31T22:10:18.728Z,5.63
2019-01-31T22:12:44.971Z,5.37
2019-01-31T22:15:20.351Z,11.17
2019-01-31T22:17:46.530Z,6.13
2019-01-31T22:20:12.778Z,6.90
2019-01-31T22:22:39.013Z,5.97
2019-01-31T22:25:08.598Z,4.60
2019-01-31T22:27:34.766Z,5.07
2019-01-31T22:30:01.271Z,5.33
2019-01-31T22:32:27.541Z,6.40
2019-01-31T22:34:53.828Z,6.67
2019-01-31T22:37:19.992Z,7.47
2019-01-31T22:39:46.175Z,5.73
2019-01-31T22:42:12.343Z,6.20
2019-01-31T22:44:38.608Z,5.33
2019-01-31T22:47:04.760Z,5.10
2019-01-31T22:49:31.035Z,6.50
2019-01-31T22:51:57.232Z,6.50
2019-01-31T22:54:23.479Z,7.57
2019-01-31T22:56:49.622Z,6.97
2019-01-31T22:59:15.718Z,6.40
2019-01-31T23:04:33.516Z,7.27
2019-01-31T23:06:59.566Z,9.23
2019-01-31T23:09:25.633Z,8.37
2019-01-31T23:11:51.797Z,8.37
2019-01-31T23:14:17.970Z,7.60
2019-01-31T23:16:44.219Z,8.20
2019-01-31T23:19:10.372Z,9.30
2019-01-31T23:21:36.444Z,7.40
2019-01-31T23:24:02.931Z,7.70
2019-01-31T23:26:28.980Z,8.33
2019-01-31T23:28:55.165Z,8.80
2019-01-31T23:31:21.310Z,10.50
2019-01-31T23:33:47.379Z,9.20
2019-01-31T23:36:13.559Z,9.00
2019-01-31T23:38:39.505Z,8.67
2019-01-31T23:41:05.565Z,8.97
2019-01-31T23:43:31.516Z,7.93
2019-01-31T23:45:57.684Z,8.27
2019-01-31T23:48:23.765Z,11.90
2019-01-31T23:50:49.814Z,10.50
2019-01-31T23:53:15.987Z,9.80
2019-01-31T23:55:42.292Z,9.03
2019-01-31T23:58:08.438Z,10.77
